sensor_id;sensor_type;location;lat;lon;timestamp;P1;durP1;ratioP1;P2;durP2;ratioP2
61250;SDS011;47126;47.508;8.590;2023-05-07T00:00:04;4.05;;;2.60;;
61250;SDS011;47126;47.508;8.590;2023-05-07T00:02:33;4.30;;;2.80;;
61250;SDS011;47126;47.508;8.590;2023-05-07T00:04:59;7.88;;;2.80;;
61250;SDS011;47126;47.508;8.590;2023-05-07T00:07:25;6.68;;;2.47;;
61250;SDS011;47126;47.508;8.590;2023-05-07T00:09:51;5.40;;;2.80;;
61250;SDS011;47126;47.508;8.590;2023-05-07T00:12:17;8.10;;;2.88;;
61250;SDS011;47126;47.508;8.590;2023-05-07T00:14:43;4.72;;;2.63;;
61250;SDS011;47126;47.508;8.590;2023-05-07T00:17:09;6.05;;;2.65;;
61250;SDS011;47126;47.508;8.590;2023-05-07T00:19:35;5.70;;;2.55;;
61250;SDS011;47126;47.508;8.590;2023-05-07T00:22:01;3.22;;;2.20;;
61250;SDS011;47126;47.508;8.590;2023-05-07T00:24:27;4.78;;;2.60;;
61250;SDS011;47126;47.508;8.590;2023-05-07T00:26:53;4.75;;;2.53;;
61250;SDS011;47126;47.508;8.590;2023-05-07T00:29:19;7.22;;;2.50;;
61250;SDS011;47126;47.508;8.590;2023-05-07T00:31:45;4.32;;;2.42;;
61250;SDS011;47126;47.508;8.590;2023-05-07T00:34:11;5.30;;;2.30;;
61250;SDS011;47126;47.508;8.590;2023-05-07T00:36:37;2.92;;;2.10;;
61250;SDS011;47126;47.508;8.590;2023-05-07T00:39:03;6.88;;;2.45;;
61250;SDS011;47126;47.508;8.590;2023-05-07T00:41:29;5.80;;;2.78;;
61250;SDS011;47126;47.508;8.590;2023-05-07T00:43:55;6.78;;;2.50;;
61250;SDS011;47126;47.508;8.590;2023-05-07T00:46:22;4.18;;;2.38;;
61250;SDS011;47126;47.508;8.590;2023-05-07T00:48:49;4.07;;;2.50;;
61250;SDS011;47126;47.508;8.590;2023-05-07T00:51:15;4.25;;;2.50;;
61250;SDS011;47126;47.508;8.590;2023-05-07T00:53:42;4.95;;;2.40;;
61250;SDS011;47126;47.508;8.590;2023-05-07T00:56:08;5.18;;;2.88;;
61250;SDS011;47126;47.508;8.590;2023-05-07T00:58:34;5.10;;;2.45;;
61250;SDS011;47126;47.508;8.590;2023-05-07T01:01:01;3.95;;;2.38;;
61250;SDS011;47126;47.508;8.590;2023-05-07T01:03:27;6.13;;;3.03;;
61250;SDS011;47126;47.508;8.590;2023-05-07T01:05:53;3.85;;;2.65;;
61250;SDS011;47126;47.508;8.590;2023-05-07T01:08:21;3.80;;;2.75;;
61250;SDS011;47126;47.508;8.590;2023-05-07T01:10:49;5.57;;;3.40;;
61250;SDS011;47126;47.508;8.590;2023-05-07T01:13:17;6.60;;;2.80;;
61250;SDS011;47126;47.508;8.590;2023-05-07T01:15:43;7.00;;;3.30;;
61250;SDS011;47126;47.508;8.590;2023-05-07T01:18:09;4.60;;;2.90;;
61250;SDS011;47126;47.508;8.590;2023-05-07T01:20:36;4.70;;;2.90;;
61250;SDS011;47126;47.508;8.590;2023-05-07T01:23:02;4.03;;;2.63;;
61250;SDS011;47126;47.508;8.590;2023-05-07T01:25:29;4.28;;;3.30;;
61250;SDS011;47126;47.508;8.590;2023-05-07T01:27:56;6.78;;;3.28;;
61250;SDS011;47126;47.508;8.590;2023-05-07T01:30:22;4.95;;;3.00;;
61250;SDS011;47126;47.508;8.590;2023-05-07T01:32:50;4.63;;;2.60;;
61250;SDS011;47126;47.508;8.590;2023-05-07T01:35:18;3.58;;;2.50;;
61250;SDS011;47126;47.508;8.590;2023-05-07T01:37:45;4.63;;;2.83;;
61250;SDS011;47126;47.508;8.590;2023-05-07T01:40:12;7.78;;;2.67;;
61250;SDS011;47126;47.508;8.590;2023-05-07T01:42:38;4.75;;;2.67;;
61250;SDS011;47126;47.508;8.590;2023-05-07T01:45:04;4.55;;;2.30;;
61250;SDS011;47126;47.508;8.590;2023-05-07T01:47:30;5.25;;;2.58;;
61250;SDS011;47126;47.508;8.590;2023-05-07T01:49:56;4.15;;;2.70;;
61250;SDS011;47126;47.508;8.590;2023-05-07T01:52:23;7.68;;;3.67;;
61250;SDS011;47126;47.508;8.590;2023-05-07T01:54:50;3.25;;;2.42;;
61250;SDS011;47126;47.508;8.590;2023-05-07T01:57:16;4.10;;;2.63;;
61250;SDS011;47126;47.508;8.590;2023-05-07T01:59:43;5.32;;;2.83;;
61250;SDS011;47126;47.508;8.590;2023-05-07T02:02:09;3.78;;;2.50;;
61250;SDS011;47126;47.508;8.590;2023-05-07T02:04:35;4.15;;;2.55;;
61250;SDS011;47126;47.508;8.590;2023-05-07T02:07:01;4.90;;;2.65;;
61250;SDS011;47126;47.508;8.590;2023-05-07T02:09:27;5.82;;;2.63;;
61250;SDS011;47126;47.508;8.590;2023-05-07T02:11:53;6.00;;;2.78;;
61250;SDS011;47126;47.508;8.590;2023-05-07T02:14:19;5.68;;;2.72;;
61250;SDS011;47126;47.508;8.590;2023-05-07T02:16:45;4.07;;;2.53;;
61250;SDS011;47126;47.508;8.590;2023-05-07T02:19:11;4.95;;;2.63;;
61250;SDS011;47126;47.508;8.590;2023-05-07T02:21:37;5.18;;;2.72;;
61250;SDS011;47126;47.508;8.590;2023-05-07T02:24:03;6.93;;;3.30;;
61250;SDS011;47126;47.508;8.590;2023-05-07T02:26:29;7.97;;;2.90;;
61250;SDS011;47126;47.508;8.590;2023-05-07T02:28:55;5.80;;;3.10;;
61250;SDS011;47126;47.508;8.590;2023-05-07T02:31:21;8.35;;;2.90;;
61250;SDS011;47126;47.508;8.590;2023-05-07T02:33:47;4.60;;;2.72;;
61250;SDS011;47126;47.508;8.590;2023-05-07T02:36:13;5.72;;;3.08;;
61250;SDS011;47126;47.508;8.590;2023-05-07T02:38:39;4.93;;;3.10;;
61250;SDS011;47126;47.508;8.590;2023-05-07T02:41:05;6.30;;;2.65;;
61250;SDS011;47126;47.508;8.590;2023-05-07T02:43:31;6.22;;;2.67;;
61250;SDS011;47126;47.508;8.590;2023-05-07T02:46:01;25.42;;;2.80;;
61250;SDS011;47126;47.508;8.590;2023-05-07T02:48:27;5.15;;;2.70;;
61250;SDS011;47126;47.508;8.590;2023-05-07T02:50:53;4.10;;;2.50;;
61250;SDS011;47126;47.508;8.590;2023-05-07T02:53:19;6.18;;;2.67;;
61250;SDS011;47126;47.508;8.590;2023-05-07T02:55:45;3.97;;;2.10;;
61250;SDS011;47126;47.508;8.590;2023-05-07T02:58:11;5.65;;;2.78;;
61250;SDS011;47126;47.508;8.590;2023-05-07T03:00:37;3.70;;;2.65;;
61250;SDS011;47126;47.508;8.590;2023-05-07T03:03:03;5.15;;;2.65;;
61250;SDS011;47126;47.508;8.590;2023-05-07T03:05:29;5.15;;;2.67;;
61250;SDS011;47126;47.508;8.590;2023-05-07T03:07:55;4.90;;;2.28;;
61250;SDS011;47126;47.508;8.590;2023-05-07T03:10:21;5.93;;;2.92;;
61250;SDS011;47126;47.508;8.590;2023-05-07T03:12:47;6.13;;;2.60;;
61250;SDS011;47126;47.508;8.590;2023-05-07T03:15:13;4.05;;;2.30;;
61250;SDS011;47126;47.508;8.590;2023-05-07T03:17:39;4.45;;;1.90;;
61250;SDS011;47126;47.508;8.590;2023-05-07T03:20:05;4.57;;;2.40;;
61250;SDS011;47126;47.508;8.590;2023-05-07T03:22:32;6.78;;;2.40;;
61250;SDS011;47126;47.508;8.590;2023-05-07T03:24:58;5.55;;;2.40;;
61250;SDS011;47126;47.508;8.590;2023-05-07T03:27:24;7.95;;;2.85;;
61250;SDS011;47126;47.508;8.590;2023-05-07T03:29:50;4.22;;;2.72;;
61250;SDS011;47126;47.508;8.590;2023-05-07T03:32:16;5.38;;;2.70;;
61250;SDS011;47126;47.508;8.590;2023-05-07T03:34:42;3.47;;;2.42;;
61250;SDS011;47126;47.508;8.590;2023-05-07T03:37:08;6.10;;;2.55;;
61250;SDS011;47126;47.508;8.590;2023-05-07T03:39:34;4.53;;;2.90;;
61250;SDS011;47126;47.508;8.590;2023-05-07T03:42:00;4.25;;;2.63;;
61250;SDS011;47126;47.508;8.590;2023-05-07T03:44:26;5.13;;;3.53;;
61250;SDS011;47126;47.508;8.590;2023-05-07T03:46:52;6.03;;;3.67;;
61250;SDS011;47126;47.508;8.590;2023-05-07T03:49:18;4.25;;;3.03;;
61250;SDS011;47126;47.508;8.590;2023-05-07T03:51:44;7.03;;;3.65;;
61250;SDS011;47126;47.508;8.590;2023-05-07T03:54:10;9.05;;;3.03;;
61250;SDS011;47126;47.508;8.590;2023-05-07T03:56:36;6.60;;;2.90;;
61250;SDS011;47126;47.508;8.590;2023-05-07T03:59:02;4.53;;;3.10;;
61250;SDS011;47126;47.508;8.590;2023-05-07T04:01:28;6.70;;;4.10;;
61250;SDS011;47126;47.508;8.590;2023-05-07T04:03:55;6.13;;;3.10;;
61250;SDS011;47126;47.508;8.590;2023-05-07T04:06:21;9.43;;;3.22;;
61250;SDS011;47126;47.508;8.590;2023-05-07T04:08:47;3.85;;;2.58;;
61250;SDS011;47126;47.508;8.590;2023-05-07T04:11:13;4.05;;;2.70;;
61250;SDS011;47126;47.508;8.590;2023-05-07T04:13:39;4.50;;;2.70;;
61250;SDS011;47126;47.508;8.590;2023-05-07T04:16:05;6.40;;;2.78;;
61250;SDS011;47126;47.508;8.590;2023-05-07T04:18:31;5.88;;;2.90;;
61250;SDS011;47126;47.508;8.590;2023-05-07T04:20:57;7.30;;;2.92;;
61250;SDS011;47126;47.508;8.590;2023-05-07T04:23:23;6.85;;;2.70;;
61250;SDS011;47126;47.508;8.590;2023-05-07T04:25:49;3.72;;;2.50;;
61250;SDS011;47126;47.508;8.590;2023-05-07T04:28:15;6.18;;;3.00;;
61250;SDS011;47126;47.508;8.590;2023-05-07T04:30:41;4.95;;;2.75;;
61250;SDS011;47126;47.508;8.590;2023-05-07T04:33:07;5.93;;;3.50;;
61250;SDS011;47126;47.508;8.590;2023-05-07T04:35:33;5.38;;;3.20;;
61250;SDS011;47126;47.508;8.590;2023-05-07T04:38:00;6.47;;;3.38;;
61250;SDS011;47126;47.508;8.590;2023-05-07T04:40:26;9.13;;;3.58;;
61250;SDS011;47126;47.508;8.590;2023-05-07T04:42:52;7.47;;;4.05;;
61250;SDS011;47126;47.508;8.590;2023-05-07T04:45:18;9.27;;;4.53;;
61250;SDS011;47126;47.508;8.590;2023-05-07T04:47:44;6.35;;;3.88;;
61250;SDS011;47126;47.508;8.590;2023-05-07T04:50:10;5.45;;;3.63;;
61250;SDS011;47126;47.508;8.590;2023-05-07T04:52:36;6.60;;;3.88;;
61250;SDS011;47126;47.508;8.590;2023-05-07T04:55:02;7.70;;;3.97;;
61250;SDS011;47126;47.508;8.590;2023-05-07T04:57:28;8.23;;;4.40;;
61250;SDS011;47126;47.508;8.590;2023-05-07T04:59:54;6.10;;;3.88;;
61250;SDS011;47126;47.508;8.590;2023-05-07T05:02:20;7.78;;;4.45;;
61250;SDS011;47126;47.508;8.590;2023-05-07T05:04:46;8.43;;;3.95;;
61250;SDS011;47126;47.508;8.590;2023-05-07T05:07:12;7.60;;;3.80;;
61250;SDS011;47126;47.508;8.590;2023-05-07T05:09:38;8.23;;;3.47;;
61250;SDS011;47126;47.508;8.590;2023-05-07T05:12:04;5.07;;;3.17;;
61250;SDS011;47126;47.508;8.590;2023-05-07T05:14:32;7.40;;;3.58;;
61250;SDS011;47126;47.508;8.590;2023-05-07T05:16:58;7.13;;;3.97;;
61250;SDS011;47126;47.508;8.590;2023-05-07T05:19:24;9.77;;;4.60;;
61250;SDS011;47126;47.508;8.590;2023-05-07T05:21:50;8.50;;;4.80;;
61250;SDS011;47126;47.508;8.590;2023-05-07T05:24:16;8.75;;;6.00;;
61250;SDS011;47126;47.508;8.590;2023-05-07T05:26:42;13.10;;;7.05;;
61250;SDS011;47126;47.508;8.590;2023-05-07T05:29:08;9.55;;;5.85;;
61250;SDS011;47126;47.508;8.590;2023-05-07T05:31:35;8.32;;;4.03;;
61250;SDS011;47126;47.508;8.590;2023-05-07T05:34:01;7.45;;;3.53;;
61250;SDS011;47126;47.508;8.590;2023-05-07T05:36:27;8.07;;;3.63;;
61250;SDS011;47126;47.508;8.590;2023-05-07T05:38:53;6.55;;;3.47;;
61250;SDS011;47126;47.508;8.590;2023-05-07T05:41:19;8.27;;;3.95;;
61250;SDS011;47126;47.508;8.590;2023-05-07T05:43:45;5.43;;;3.85;;
61250;SDS011;47126;47.508;8.590;2023-05-07T05:46:11;7.03;;;4.03;;
61250;SDS011;47126;47.508;8.590;2023-05-07T05:48:37;10.02;;;4.55;;
61250;SDS011;47126;47.508;8.590;2023-05-07T05:51:03;7.85;;;4.15;;
61250;SDS011;47126;47.508;8.590;2023-05-07T05:53:29;7.82;;;4.55;;
61250;SDS011;47126;47.508;8.590;2023-05-07T05:55:55;8.52;;;4.35;;
61250;SDS011;47126;47.508;8.590;2023-05-07T05:58:21;7.32;;;4.25;;
61250;SDS011;47126;47.508;8.590;2023-05-07T06:00:47;7.38;;;4.13;;
61250;SDS011;47126;47.508;8.590;2023-05-07T06:03:13;8.20;;;4.25;;
61250;SDS011;47126;47.508;8.590;2023-05-07T06:05:39;7.63;;;4.18;;
61250;SDS011;47126;47.508;8.590;2023-05-07T06:08:05;6.53;;;4.10;;
61250;SDS011;47126;47.508;8.590;2023-05-07T06:10:31;8.38;;;4.38;;
61250;SDS011;47126;47.508;8.590;2023-05-07T06:12:57;6.97;;;3.78;;
61250;SDS011;47126;47.508;8.590;2023-05-07T06:15:23;7.95;;;4.35;;
61250;SDS011;47126;47.508;8.590;2023-05-07T06:17:49;8.52;;;4.70;;
61250;SDS011;47126;47.508;8.590;2023-05-07T06:20:15;8.30;;;4.70;;
61250;SDS011;47126;47.508;8.590;2023-05-07T06:22:41;8.32;;;4.82;;
61250;SDS011;47126;47.508;8.590;2023-05-07T06:25:07;7.88;;;4.13;;
61250;SDS011;47126;47.508;8.590;2023-05-07T06:27:33;8.30;;;4.30;;
61250;SDS011;47126;47.508;8.590;2023-05-07T06:29:59;8.48;;;4.30;;
61250;SDS011;47126;47.508;8.590;2023-05-07T06:32:25;7.47;;;4.28;;
61250;SDS011;47126;47.508;8.590;2023-05-07T06:34:51;8.18;;;4.15;;
61250;SDS011;47126;47.508;8.590;2023-05-07T06:37:17;7.75;;;4.30;;
61250;SDS011;47126;47.508;8.590;2023-05-07T06:39:43;5.55;;;3.90;;
61250;SDS011;47126;47.508;8.590;2023-05-07T06:42:10;9.88;;;4.13;;
61250;SDS011;47126;47.508;8.590;2023-05-07T06:44:36;7.75;;;4.43;;
61250;SDS011;47126;47.508;8.590;2023-05-07T06:47:02;7.72;;;3.58;;
61250;SDS011;47126;47.508;8.590;2023-05-07T06:49:30;7.15;;;3.88;;
61250;SDS011;47126;47.508;8.590;2023-05-07T06:51:56;7.95;;;3.67;;
61250;SDS011;47126;47.508;8.590;2023-05-07T06:54:22;9.60;;;4.30;;
61250;SDS011;47126;47.508;8.590;2023-05-07T06:56:49;6.15;;;3.72;;
61250;SDS011;47126;47.508;8.590;2023-05-07T06:59:15;9.63;;;4.03;;
61250;SDS011;47126;47.508;8.590;2023-05-07T07:01:41;6.80;;;4.38;;
61250;SDS011;47126;47.508;8.590;2023-05-07T07:04:07;8.85;;;4.90;;
61250;SDS011;47126;47.508;8.590;2023-05-07T07:06:33;9.98;;;5.70;;
61250;SDS011;47126;47.508;8.590;2023-05-07T07:08:59;8.02;;;5.18;;
61250;SDS011;47126;47.508;8.590;2023-05-07T07:11:25;11.02;;;5.47;;
61250;SDS011;47126;47.508;8.590;2023-05-07T07:13:52;9.77;;;5.47;;
61250;SDS011;47126;47.508;8.590;2023-05-07T07:16:19;8.65;;;5.45;;
61250;SDS011;47126;47.508;8.590;2023-05-07T07:18:45;8.50;;;5.35;;
61250;SDS011;47126;47.508;8.590;2023-05-07T07:21:11;8.13;;;5.40;;
61250;SDS011;47126;47.508;8.590;2023-05-07T07:23:37;10.50;;;5.18;;
61250;SDS011;47126;47.508;8.590;2023-05-07T07:26:03;6.80;;;4.13;;
61250;SDS011;47126;47.508;8.590;2023-05-07T07:28:30;8.68;;;4.70;;
61250;SDS011;47126;47.508;8.590;2023-05-07T07:30:56;7.50;;;4.15;;
61250;SDS011;47126;47.508;8.590;2023-05-07T07:33:23;6.80;;;4.10;;
61250;SDS011;47126;47.508;8.590;2023-05-07T07:35:48;5.72;;;3.65;;
61250;SDS011;47126;47.508;8.590;2023-05-07T07:38:14;5.50;;;3.28;;
61250;SDS011;47126;47.508;8.590;2023-05-07T07:40:40;4.95;;;3.10;;
61250;SDS011;47126;47.508;8.590;2023-05-07T07:43:08;7.22;;;3.58;;
61250;SDS011;47126;47.508;8.590;2023-05-07T07:45:34;5.63;;;3.63;;
61250;SDS011;47126;47.508;8.590;2023-05-07T07:48:00;8.43;;;4.30;;
61250;SDS011;47126;47.508;8.590;2023-05-07T07:50:26;6.32;;;3.67;;
61250;SDS011;47126;47.508;8.590;2023-05-07T07:52:52;6.07;;;3.55;;
61250;SDS011;47126;47.508;8.590;2023-05-07T07:55:19;7.22;;;4.07;;
61250;SDS011;47126;47.508;8.590;2023-05-07T07:57:48;11.10;;;3.78;;
61250;SDS011;47126;47.508;8.590;2023-05-07T08:00:14;6.20;;;3.50;;
61250;SDS011;47126;47.508;8.590;2023-05-07T08:02:40;7.63;;;3.55;;
61250;SDS011;47126;47.508;8.590;2023-05-07T08:05:06;5.32;;;3.05;;
61250;SDS011;47126;47.508;8.590;2023-05-07T08:07:32;4.38;;;2.58;;
61250;SDS011;47126;47.508;8.590;2023-05-07T08:09:58;5.45;;;2.72;;
61250;SDS011;47126;47.508;8.590;2023-05-07T08:12:24;4.85;;;2.33;;
61250;SDS011;47126;47.508;8.590;2023-05-07T08:14:50;5.85;;;2.50;;
61250;SDS011;47126;47.508;8.590;2023-05-07T08:17:16;6.72;;;3.25;;
61250;SDS011;47126;47.508;8.590;2023-05-07T08:19:42;4.32;;;2.63;;
61250;SDS011;47126;47.508;8.590;2023-05-07T08:22:09;4.40;;;2.78;;
61250;SDS011;47126;47.508;8.590;2023-05-07T08:24:35;4.28;;;2.75;;
61250;SDS011;47126;47.508;8.590;2023-05-07T08:27:01;4.97;;;2.10;;
61250;SDS011;47126;47.508;8.590;2023-05-07T08:29:27;4.45;;;2.67;;
61250;SDS011;47126;47.508;8.590;2023-05-07T08:31:53;6.05;;;2.58;;
61250;SDS011;47126;47.508;8.590;2023-05-07T08:34:20;5.40;;;2.30;;
61250;SDS011;47126;47.508;8.590;2023-05-07T08:36:47;3.92;;;2.40;;
61250;SDS011;47126;47.508;8.590;2023-05-07T08:39:13;4.95;;;2.70;;
61250;SDS011;47126;47.508;8.590;2023-05-07T08:41:39;5.60;;;2.47;;
61250;SDS011;47126;47.508;8.590;2023-05-07T08:44:06;4.53;;;2.45;;
61250;SDS011;47126;47.508;8.590;2023-05-07T08:46:32;6.85;;;2.85;;
61250;SDS011;47126;47.508;8.590;2023-05-07T08:48:58;4.43;;;2.03;;
61250;SDS011;47126;47.508;8.590;2023-05-07T08:51:24;8.90;;;2.70;;
61250;SDS011;47126;47.508;8.590;2023-05-07T08:53:52;3.30;;;2.25;;
61250;SDS011;47126;47.508;8.590;2023-05-07T08:56:17;6.55;;;2.75;;
61250;SDS011;47126;47.508;8.590;2023-05-07T08:58:45;4.43;;;2.65;;
61250;SDS011;47126;47.508;8.590;2023-05-07T09:01:15;5.47;;;2.20;;
61250;SDS011;47126;47.508;8.590;2023-05-07T09:03:42;9.75;;;2.55;;
61250;SDS011;47126;47.508;8.590;2023-05-07T09:06:09;6.32;;;2.70;;
61250;SDS011;47126;47.508;8.590;2023-05-07T09:08:35;8.15;;;2.97;;
61250;SDS011;47126;47.508;8.590;2023-05-07T09:11:02;5.70;;;2.70;;
61250;SDS011;47126;47.508;8.590;2023-05-07T09:13:28;3.97;;;2.67;;
61250;SDS011;47126;47.508;8.590;2023-05-07T09:15:54;6.55;;;2.60;;
61250;SDS011;47126;47.508;8.590;2023-05-07T09:18:20;4.15;;;2.80;;
61250;SDS011;47126;47.508;8.590;2023-05-07T09:20:46;3.78;;;2.50;;
61250;SDS011;47126;47.508;8.590;2023-05-07T09:23:12;4.00;;;2.10;;
61250;SDS011;47126;47.508;8.590;2023-05-07T09:25:40;3.60;;;2.78;;
61250;SDS011;47126;47.508;8.590;2023-05-07T09:28:06;4.88;;;2.63;;
61250;SDS011;47126;47.508;8.590;2023-05-07T09:30:32;6.55;;;2.90;;
61250;SDS011;47126;47.508;8.590;2023-05-07T09:32:59;6.97;;;2.75;;
61250;SDS011;47126;47.508;8.590;2023-05-07T09:35:25;4.72;;;2.85;;
61250;SDS011;47126;47.508;8.590;2023-05-07T09:37:57;5.15;;;2.60;;
61250;SDS011;47126;47.508;8.590;2023-05-07T09:40:23;5.50;;;2.60;;
61250;SDS011;47126;47.508;8.590;2023-05-07T09:42:50;5.35;;;2.70;;
61250;SDS011;47126;47.508;8.590;2023-05-07T09:45:21;10.48;;;2.75;;
61250;SDS011;47126;47.508;8.590;2023-05-07T09:47:47;6.22;;;3.03;;
61250;SDS011;47126;47.508;8.590;2023-05-07T09:50:14;4.25;;;2.75;;
61250;SDS011;47126;47.508;8.590;2023-05-07T09:52:41;5.45;;;2.60;;
61250;SDS011;47126;47.508;8.590;2023-05-07T09:55:08;5.85;;;2.95;;
61250;SDS011;47126;47.508;8.590;2023-05-07T09:57:34;4.25;;;2.80;;
61250;SDS011;47126;47.508;8.590;2023-05-07T10:00:02;5.50;;;2.97;;
61250;SDS011;47126;47.508;8.590;2023-05-07T10:02:31;4.33;;;3.03;;
61250;SDS011;47126;47.508;8.590;2023-05-07T10:04:57;8.20;;;2.88;;
61250;SDS011;47126;47.508;8.590;2023-05-07T10:07:25;6.45;;;3.00;;
61250;SDS011;47126;47.508;8.590;2023-05-07T10:09:52;4.82;;;2.97;;
61250;SDS011;47126;47.508;8.590;2023-05-07T10:12:19;6.05;;;3.03;;
61250;SDS011;47126;47.508;8.590;2023-05-07T10:14:45;5.47;;;2.95;;
61250;SDS011;47126;47.508;8.590;2023-05-07T10:17:13;4.88;;;2.78;;
61250;SDS011;47126;47.508;8.590;2023-05-07T10:19:39;6.70;;;2.53;;
61250;SDS011;47126;47.508;8.590;2023-05-07T10:22:06;4.57;;;2.60;;
61250;SDS011;47126;47.508;8.590;2023-05-07T10:24:33;5.00;;;2.83;;
61250;SDS011;47126;47.508;8.590;2023-05-07T10:27:00;7.65;;;3.33;;
61250;SDS011;47126;47.508;8.590;2023-05-07T10:34:23;4.07;;;2.80;;
61250;SDS011;47126;47.508;8.590;2023-05-07T10:36:50;7.88;;;3.00;;
61250;SDS011;47126;47.508;8.590;2023-05-07T10:39:17;5.07;;;3.00;;
61250;SDS011;47126;47.508;8.590;2023-05-07T10:41:45;7.10;;;3.00;;
61250;SDS011;47126;47.508;8.590;2023-05-07T10:44:11;4.70;;;3.08;;
61250;SDS011;47126;47.508;8.590;2023-05-07T10:46:37;6.03;;;2.70;;
61250;SDS011;47126;47.508;8.590;2023-05-07T10:51:31;7.35;;;3.10;;
61250;SDS011;47126;47.508;8.590;2023-05-07T10:56:36;4.47;;;3.03;;
61250;SDS011;47126;47.508;8.590;2023-05-07T11:01:55;6.35;;;2.80;;
61250;SDS011;47126;47.508;8.590;2023-05-07T11:04:22;4.90;;;2.70;;
61250;SDS011;47126;47.508;8.590;2023-05-07T11:07:38;4.85;;;3.03;;
61250;SDS011;47126;47.508;8.590;2023-05-07T11:15:04;5.40;;;3.15;;
61250;SDS011;47126;47.508;8.590;2023-05-07T11:17:31;10.55;;;3.40;;
61250;SDS011;47126;47.508;8.590;2023-05-07T11:19:59;4.55;;;3.03;;
61250;SDS011;47126;47.508;8.590;2023-05-07T11:24:54;8.13;;;3.53;;
61250;SDS011;47126;47.508;8.590;2023-05-07T11:27:23;6.80;;;4.20;;
61250;SDS011;47126;47.508;8.590;2023-05-07T11:29:50;5.53;;;3.00;;
61250;SDS011;47126;47.508;8.590;2023-05-07T11:32:21;6.45;;;3.63;;
61250;SDS011;47126;47.508;8.590;2023-05-07T11:34:51;6.82;;;3.10;;
61250;SDS011;47126;47.508;8.590;2023-05-07T11:37:17;4.90;;;3.30;;
61250;SDS011;47126;47.508;8.590;2023-05-07T11:39:43;7.00;;;3.10;;
61250;SDS011;47126;47.508;8.590;2023-05-07T11:42:25;5.57;;;3.25;;
61250;SDS011;47126;47.508;8.590;2023-05-07T11:44:51;7.35;;;3.47;;
61250;SDS011;47126;47.508;8.590;2023-05-07T11:47:18;5.18;;;3.42;;
61250;SDS011;47126;47.508;8.590;2023-05-07T11:49:47;7.53;;;3.85;;
61250;SDS011;47126;47.508;8.590;2023-05-07T11:52:14;5.70;;;3.43;;
61250;SDS011;47126;47.508;8.590;2023-05-07T11:54:40;8.25;;;3.17;;
61250;SDS011;47126;47.508;8.590;2023-05-07T11:57:06;6.32;;;3.72;;
61250;SDS011;47126;47.508;8.590;2023-05-07T11:59:41;6.97;;;3.42;;
61250;SDS011;47126;47.508;8.590;2023-05-07T12:02:13;8.27;;;3.27;;
61250;SDS011;47126;47.508;8.590;2023-05-07T12:04:39;4.57;;;3.00;;
61250;SDS011;47126;47.508;8.590;2023-05-07T12:07:06;4.55;;;3.28;;
61250;SDS011;47126;47.508;8.590;2023-05-07T12:09:37;5.50;;;2.88;;
61250;SDS011;47126;47.508;8.590;2023-05-07T12:12:03;5.50;;;3.28;;
61250;SDS011;47126;47.508;8.590;2023-05-07T12:14:29;6.05;;;3.45;;
61250;SDS011;47126;47.508;8.590;2023-05-07T12:16:56;4.53;;;2.83;;
61250;SDS011;47126;47.508;8.590;2023-05-07T12:19:22;5.68;;;2.97;;
61250;SDS011;47126;47.508;8.590;2023-05-07T12:21:48;4.50;;;3.15;;
61250;SDS011;47126;47.508;8.590;2023-05-07T12:24:14;6.57;;;3.10;;
61250;SDS011;47126;47.508;8.590;2023-05-07T12:26:40;4.97;;;2.80;;
61250;SDS011;47126;47.508;8.590;2023-05-07T12:29:06;6.45;;;3.22;;
61250;SDS011;47126;47.508;8.590;2023-05-07T12:31:33;6.18;;;3.05;;
61250;SDS011;47126;47.508;8.590;2023-05-07T12:33:59;4.22;;;2.88;;
61250;SDS011;47126;47.508;8.590;2023-05-07T12:36:25;5.72;;;3.00;;
61250;SDS011;47126;47.508;8.590;2023-05-07T12:38:51;4.70;;;3.10;;
61250;SDS011;47126;47.508;8.590;2023-05-07T12:41:17;4.10;;;2.67;;
61250;SDS011;47126;47.508;8.590;2023-05-07T12:43:44;3.78;;;2.80;;
61250;SDS011;47126;47.508;8.590;2023-05-07T12:46:11;5.20;;;2.85;;
61250;SDS011;47126;47.508;8.590;2023-05-07T12:48:43;5.38;;;2.95;;
61250;SDS011;47126;47.508;8.590;2023-05-07T12:51:13;5.40;;;2.75;;
61250;SDS011;47126;47.508;8.590;2023-05-07T12:53:40;6.75;;;3.20;;
61250;SDS011;47126;47.508;8.590;2023-05-07T12:56:09;5.85;;;3.17;;
61250;SDS011;47126;47.508;8.590;2023-05-07T12:58:36;4.53;;;3.03;;
61250;SDS011;47126;47.508;8.590;2023-05-07T13:01:06;8.88;;;2.65;;
61250;SDS011;47126;47.508;8.590;2023-05-07T13:03:33;6.40;;;2.70;;
61250;SDS011;47126;47.508;8.590;2023-05-07T13:06:04;5.03;;;2.90;;
61250;SDS011;47126;47.508;8.590;2023-05-07T13:08:34;7.20;;;2.90;;
61250;SDS011;47126;47.508;8.590;2023-05-07T13:11:02;5.00;;;3.40;;
61250;SDS011;47126;47.508;8.590;2023-05-07T13:13:32;6.65;;;3.25;;
61250;SDS011;47126;47.508;8.590;2023-05-07T13:15:58;5.23;;;3.00;;
61250;SDS011;47126;47.508;8.590;2023-05-07T13:18:25;7.78;;;3.50;;
61250;SDS011;47126;47.508;8.590;2023-05-07T13:20:52;5.35;;;2.95;;
61250;SDS011;47126;47.508;8.590;2023-05-07T13:23:18;5.25;;;3.17;;
61250;SDS011;47126;47.508;8.590;2023-05-07T13:25:44;6.20;;;3.03;;
61250;SDS011;47126;47.508;8.590;2023-05-07T13:28:10;5.88;;;3.20;;
61250;SDS011;47126;47.508;8.590;2023-05-07T13:30:37;4.43;;;3.05;;
61250;SDS011;47126;47.508;8.590;2023-05-07T13:33:03;6.65;;;3.83;;
61250;SDS011;47126;47.508;8.590;2023-05-07T13:35:29;4.20;;;2.85;;
61250;SDS011;47126;47.508;8.590;2023-05-07T13:37:55;5.10;;;3.00;;
61250;SDS011;47126;47.508;8.590;2023-05-07T13:40:22;7.10;;;3.10;;
61250;SDS011;47126;47.508;8.590;2023-05-07T13:42:48;5.20;;;2.90;;
61250;SDS011;47126;47.508;8.590;2023-05-07T13:45:15;4.15;;;2.78;;
61250;SDS011;47126;47.508;8.590;2023-05-07T13:47:41;3.78;;;2.35;;
61250;SDS011;47126;47.508;8.590;2023-05-07T13:50:08;4.70;;;3.20;;
61250;SDS011;47126;47.508;8.590;2023-05-07T13:52:34;5.30;;;2.67;;
61250;SDS011;47126;47.508;8.590;2023-05-07T13:55:00;8.18;;;2.63;;
61250;SDS011;47126;47.508;8.590;2023-05-07T13:57:26;5.40;;;2.60;;
61250;SDS011;47126;47.508;8.590;2023-05-07T13:59:52;4.20;;;2.50;;
61250;SDS011;47126;47.508;8.590;2023-05-07T14:02:18;8.10;;;3.03;;
61250;SDS011;47126;47.508;8.590;2023-05-07T14:04:44;5.47;;;2.55;;
61250;SDS011;47126;47.508;8.590;2023-05-07T14:07:10;4.60;;;2.80;;
61250;SDS011;47126;47.508;8.590;2023-05-07T14:09:36;4.30;;;2.50;;
61250;SDS011;47126;47.508;8.590;2023-05-07T14:12:02;5.35;;;2.80;;
61250;SDS011;47126;47.508;8.590;2023-05-07T14:14:28;3.60;;;2.50;;
61250;SDS011;47126;47.508;8.590;2023-05-07T14:16:54;7.00;;;2.97;;
61250;SDS011;47126;47.508;8.590;2023-05-07T14:19:20;5.72;;;2.80;;
61250;SDS011;47126;47.508;8.590;2023-05-07T14:21:47;4.85;;;2.80;;
61250;SDS011;47126;47.508;8.590;2023-05-07T14:24:13;3.92;;;2.75;;
61250;SDS011;47126;47.508;8.590;2023-05-07T14:26:39;4.07;;;2.40;;
61250;SDS011;47126;47.508;8.590;2023-05-07T14:29:05;3.33;;;2.53;;
61250;SDS011;47126;47.508;8.590;2023-05-07T14:31:31;4.50;;;2.95;;
61250;SDS011;47126;47.508;8.590;2023-05-07T14:33:58;3.20;;;2.50;;
61250;SDS011;47126;47.508;8.590;2023-05-07T14:36:24;3.53;;;2.63;;
61250;SDS011;47126;47.508;8.590;2023-05-07T14:41:21;6.63;;;2.42;;
61250;SDS011;47126;47.508;8.590;2023-05-07T14:43:47;4.10;;;2.30;;
61250;SDS011;47126;47.508;8.590;2023-05-07T14:46:19;3.45;;;2.20;;
61250;SDS011;47126;47.508;8.590;2023-05-07T14:48:45;3.88;;;2.47;;
61250;SDS011;47126;47.508;8.590;2023-05-07T14:51:12;2.58;;;2.05;;
61250;SDS011;47126;47.508;8.590;2023-05-07T14:53:38;2.53;;;1.90;;
61250;SDS011;47126;47.508;8.590;2023-05-07T14:56:04;3.63;;;2.05;;
61250;SDS011;47126;47.508;8.590;2023-05-07T14:58:30;3.13;;;1.80;;
61250;SDS011;47126;47.508;8.590;2023-05-07T15:00:56;4.97;;;2.00;;
61250;SDS011;47126;47.508;8.590;2023-05-07T15:03:22;2.58;;;1.90;;
61250;SDS011;47126;47.508;8.590;2023-05-07T15:05:48;3.97;;;2.10;;